ANE36MJ LEPA-LEIB
Flight info
| Callsign | ANE36MJ |
|---|---|
| Flight time | 0h 27m |
| Altitude | 11000 |
| Route | NELUX |
| Aircraft | AT76/M-SDFGIRY/S |
Departure
| Time | 2026-05-07 13:30 |
|---|---|
| Airport | Palma de Mallorca Airport (LEPA) |
Arrival
| Time | 2026-05-07 13:57 |
|---|---|
| Airport | Ibiza Airport (LEIB) |
| Time | Latitude | Longitude | Altitude | Speed | Heading |
|---|---|---|---|---|---|
| 2026-05-07 13:18 | 39.54996 | 2.73278 | 35 ft | 0 kts | 184° |
| 2026-05-07 13:23 | 39.54992 | 2.73272 | 35 ft | 1 kts | 248° |
| 2026-05-07 13:23 | 39.55004 | 2.73265 | 35 ft | 4 kts | 350° |
| 2026-05-07 13:23 | 39.55037 | 2.73279 | 35 ft | 5 kts | 36° |
| 2026-05-07 13:24 | 39.55066 | 2.73354 | 35 ft | 14 kts | 64° |
| 2026-05-07 13:24 | 39.55106 | 2.73441 | 35 ft | 9 kts | 59° |
| 2026-05-07 13:24 | 39.55143 | 2.73518 | 35 ft | 14 kts | 58° |
| 2026-05-07 13:24 | 39.55181 | 2.73604 | 35 ft | 12 kts | 68° |
| 2026-05-07 13:25 | 39.55178 | 2.73695 | 35 ft | 13 kts | 64° |
| 2026-05-07 13:25 | 39.55170 | 2.73796 | 35 ft | 10 kts | 63° |
| 2026-05-07 13:25 | 39.55156 | 2.73868 | 35 ft | 14 kts | 154° |
| 2026-05-07 13:25 | 39.55006 | 2.73985 | 35 ft | 17 kts | 149° |
| 2026-05-07 13:26 | 39.54943 | 2.74034 | 35 ft | 15 kts | 148° |
| 2026-05-07 13:26 | 39.54864 | 2.74097 | 35 ft | 12 kts | 149° |
| 2026-05-07 13:26 | 39.54784 | 2.74108 | 35 ft | 14 kts | 219° |
| 2026-05-07 13:26 | 39.54715 | 2.73970 | 35 ft | 22 kts | 239° |
| 2026-05-07 13:27 | 39.54633 | 2.73799 | 35 ft | 23 kts | 238° |
| 2026-05-07 13:27 | 39.54551 | 2.73674 | 35 ft | 7 kts | 169° |
| 2026-05-07 13:27 | 39.54509 | 2.73706 | 35 ft | 7 kts | 149° |
| 2026-05-07 13:27 | 39.54484 | 2.73726 | 35 ft | 0 kts | 149° |
| 2026-05-07 13:28 | 39.54467 | 2.73738 | 35 ft | 9 kts | 149° |
| 2026-05-07 13:28 | 39.54420 | 2.73780 | 35 ft | 4 kts | 116° |
| 2026-05-07 13:28 | 39.54425 | 2.73801 | 35 ft | 3 kts | 61° |
| 2026-05-07 13:29 | 39.54426 | 2.73802 | 35 ft | 0 kts | 58° |
| 2026-05-07 13:29 | 39.54433 | 2.73818 | 35 ft | 17 kts | 59° |
| 2026-05-07 13:29 | 39.54616 | 2.74204 | 35 ft | 81 kts | 58° |
| 2026-05-07 13:30 | 39.54999 | 2.75007 | 151 ft | 118 kts | 59° |
| 2026-05-07 13:30 | 39.55455 | 2.75913 | 671 ft | 121 kts | 58° |
| 2026-05-07 13:30 | 39.55915 | 2.76835 | 1250 ft | 122 kts | 59° |
| 2026-05-07 13:30 | 39.56081 | 2.77903 | 1571 ft | 136 kts | 99° |
| 2026-05-07 13:31 | 39.55874 | 2.79232 | 1599 ft | 164 kts | 99° |
| 2026-05-07 13:31 | 39.55639 | 2.80767 | 1732 ft | 180 kts | 100° |
| 2026-05-07 13:31 | 39.55370 | 2.82372 | 2042 ft | 183 kts | 101° |
| 2026-05-07 13:31 | 39.55084 | 2.83971 | 2427 ft | 182 kts | 101° |
| 2026-05-07 13:32 | 39.54778 | 2.85549 | 2872 ft | 178 kts | 103° |
| 2026-05-07 13:32 | 39.54078 | 2.86828 | 3292 ft | 184 kts | 146° |
| 2026-05-07 13:32 | 39.52820 | 2.87021 | 3737 ft | 194 kts | 191° |
| 2026-05-07 13:32 | 39.51731 | 2.85996 | 4239 ft | 196 kts | 230° |
| 2026-05-07 13:33 | 39.50887 | 2.84628 | 4710 ft | 193 kts | 226° |
| 2026-05-07 13:33 | 39.49991 | 2.83307 | 5059 ft | 195 kts | 226° |
| 2026-05-07 13:33 | 39.49100 | 2.81968 | 5447 ft | 196 kts | 226° |
| 2026-05-07 13:33 | 39.48222 | 2.80626 | 5871 ft | 194 kts | 227° |
| 2026-05-07 13:34 | 39.47357 | 2.79280 | 6247 ft | 195 kts | 227° |
| 2026-05-07 13:34 | 39.45615 | 2.76584 | 7002 ft | 194 kts | 227° |
| 2026-05-07 13:34 | 39.44750 | 2.75246 | 7357 ft | 194 kts | 227° |
| 2026-05-07 13:35 | 39.43884 | 2.73898 | 7714 ft | 195 kts | 227° |
| 2026-05-07 13:35 | 39.43021 | 2.72575 | 8067 ft | 195 kts | 228° |
| 2026-05-07 13:35 | 39.42150 | 2.71228 | 8398 ft | 196 kts | 227° |
| 2026-05-07 13:35 | 39.41274 | 2.69876 | 8729 ft | 197 kts | 227° |
| 2026-05-07 13:36 | 39.40394 | 2.68520 | 9062 ft | 197 kts | 227° |
| 2026-05-07 13:36 | 39.39509 | 2.67156 | 9398 ft | 198 kts | 227° |
| 2026-05-07 13:36 | 39.38632 | 2.65786 | 9738 ft | 198 kts | 227° |
| 2026-05-07 13:36 | 39.37752 | 2.64407 | 10054 ft | 198 kts | 227° |
| 2026-05-07 13:37 | 39.36875 | 2.63028 | 10344 ft | 199 kts | 227° |
| 2026-05-07 13:37 | 39.35997 | 2.61652 | 10655 ft | 198 kts | 227° |
| 2026-05-07 13:37 | 39.35097 | 2.60272 | 10822 ft | 205 kts | 227° |
| 2026-05-07 13:37 | 39.34152 | 2.58819 | 10884 ft | 217 kts | 227° |
| 2026-05-07 13:38 | 39.33171 | 2.57303 | 10909 ft | 228 kts | 227° |
| 2026-05-07 13:38 | 39.32128 | 2.55707 | 10918 ft | 237 kts | 227° |
| 2026-05-07 13:38 | 39.31057 | 2.54052 | 10924 ft | 243 kts | 226° |
| 2026-05-07 13:38 | 39.29949 | 2.52370 | 10929 ft | 248 kts | 227° |
| 2026-05-07 13:39 | 39.28818 | 2.50654 | 10929 ft | 253 kts | 226° |
| 2026-05-07 13:39 | 39.27669 | 2.48919 | 10927 ft | 256 kts | 227° |
| 2026-05-07 13:39 | 39.26509 | 2.47165 | 10927 ft | 258 kts | 227° |
| 2026-05-07 13:39 | 39.25350 | 2.45391 | 10925 ft | 259 kts | 227° |
| 2026-05-07 13:40 | 39.24188 | 2.43601 | 10924 ft | 260 kts | 227° |
| 2026-05-07 13:40 | 39.23029 | 2.41805 | 10925 ft | 261 kts | 227° |
| 2026-05-07 13:40 | 39.21860 | 2.40001 | 10926 ft | 262 kts | 227° |
| 2026-05-07 13:40 | 39.20683 | 2.38211 | 10926 ft | 262 kts | 227° |
| 2026-05-07 13:41 | 39.19496 | 2.36420 | 10929 ft | 262 kts | 227° |
| 2026-05-07 13:41 | 39.18325 | 2.34647 | 10933 ft | 263 kts | 226° |
| 2026-05-07 13:41 | 39.17137 | 2.32841 | 10925 ft | 264 kts | 226° |
| 2026-05-07 13:41 | 39.15948 | 2.31036 | 10924 ft | 263 kts | 227° |
| 2026-05-07 13:42 | 39.14760 | 2.29229 | 10925 ft | 263 kts | 227° |
| 2026-05-07 13:42 | 39.13570 | 2.27429 | 10928 ft | 264 kts | 227° |
| 2026-05-07 13:42 | 39.12388 | 2.25623 | 10927 ft | 264 kts | 227° |
| 2026-05-07 13:42 | 39.11205 | 2.23819 | 10928 ft | 264 kts | 227° |
| 2026-05-07 13:43 | 39.10020 | 2.22010 | 10929 ft | 264 kts | 226° |
| 2026-05-07 13:43 | 39.08829 | 2.20215 | 10928 ft | 264 kts | 227° |
| 2026-05-07 13:43 | 39.07640 | 2.18417 | 10925 ft | 264 kts | 227° |
| 2026-05-07 13:43 | 39.06451 | 2.16618 | 10929 ft | 264 kts | 227° |
| 2026-05-07 13:44 | 39.05279 | 2.14836 | 10928 ft | 264 kts | 227° |
| 2026-05-07 13:44 | 39.04093 | 2.13036 | 10929 ft | 264 kts | 226° |
| 2026-05-07 13:44 | 39.02908 | 2.11230 | 10925 ft | 264 kts | 226° |
| 2026-05-07 13:44 | 39.01715 | 2.09439 | 10926 ft | 264 kts | 226° |
| 2026-05-07 13:45 | 39.00523 | 2.07649 | 10926 ft | 264 kts | 227° |
| 2026-05-07 13:45 | 38.99334 | 2.05852 | 10901 ft | 265 kts | 227° |
| 2026-05-07 13:45 | 38.98131 | 2.04026 | 10772 ft | 270 kts | 227° |
| 2026-05-07 13:45 | 38.96903 | 2.02168 | 10540 ft | 277 kts | 227° |
| 2026-05-07 13:46 | 38.95662 | 2.00284 | 10237 ft | 274 kts | 227° |
| 2026-05-07 13:46 | 38.94441 | 1.98422 | 9882 ft | 272 kts | 227° |
| 2026-05-07 13:46 | 38.93217 | 1.96571 | 9496 ft | 271 kts | 227° |
| 2026-05-07 13:46 | 38.92001 | 1.94729 | 9100 ft | 270 kts | 227° |
| 2026-05-07 13:47 | 38.90813 | 1.92878 | 8715 ft | 267 kts | 233° |
| 2026-05-07 13:47 | 38.90105 | 1.90663 | 8325 ft | 270 kts | 252° |
| 2026-05-07 13:47 | 38.89661 | 1.88311 | 7946 ft | 271 kts | 256° |
| 2026-05-07 13:47 | 38.89267 | 1.85969 | 7574 ft | 271 kts | 256° |
| 2026-05-07 13:48 | 38.88845 | 1.83602 | 7200 ft | 271 kts | 255° |
| 2026-05-07 13:48 | 38.88378 | 1.81257 | 6846 ft | 271 kts | 253° |
| 2026-05-07 13:48 | 38.87887 | 1.78913 | 6477 ft | 271 kts | 254° |
| 2026-05-07 13:48 | 38.87405 | 1.76568 | 6111 ft | 271 kts | 254° |
| 2026-05-07 13:49 | 38.86924 | 1.74243 | 5856 ft | 267 kts | 254° |
| 2026-05-07 13:49 | 38.86457 | 1.71984 | 5596 ft | 264 kts | 254° |
| 2026-05-07 13:49 | 38.85992 | 1.69721 | 5345 ft | 261 kts | 254° |
| 2026-05-07 13:49 | 38.85529 | 1.67481 | 5113 ft | 258 kts | 254° |
| 2026-05-07 13:50 | 38.85070 | 1.65257 | 4946 ft | 259 kts | 254° |
| 2026-05-07 13:50 | 38.84607 | 1.63016 | 4782 ft | 260 kts | 254° |
| 2026-05-07 13:50 | 38.84141 | 1.60756 | 4608 ft | 262 kts | 254° |
| 2026-05-07 13:50 | 38.83659 | 1.58499 | 4416 ft | 263 kts | 253° |
| 2026-05-07 13:51 | 38.83158 | 1.56243 | 4243 ft | 263 kts | 253° |
| 2026-05-07 13:51 | 38.82657 | 1.53982 | 4067 ft | 263 kts | 253° |
| 2026-05-07 13:51 | 38.82162 | 1.51736 | 3939 ft | 261 kts | 253° |
| 2026-05-07 13:51 | 38.81669 | 1.49507 | 3817 ft | 259 kts | 254° |
| 2026-05-07 13:52 | 38.81178 | 1.47284 | 3695 ft | 258 kts | 254° |
| 2026-05-07 13:52 | 38.80693 | 1.45101 | 3574 ft | 258 kts | 253° |
| 2026-05-07 13:52 | 38.80200 | 1.42893 | 3447 ft | 256 kts | 252° |
| 2026-05-07 13:52 | 38.79458 | 1.40838 | 3314 ft | 253 kts | 239° |
| 2026-05-07 13:53 | 38.78568 | 1.38867 | 3035 ft | 255 kts | 238° |
| 2026-05-07 13:53 | 38.77674 | 1.36915 | 2712 ft | 253 kts | 239° |
| 2026-05-07 13:53 | 38.76811 | 1.34937 | 2338 ft | 254 kts | 240° |
| 2026-05-07 13:53 | 38.76264 | 1.32832 | 1984 ft | 250 kts | 268° |
| 2026-05-07 13:54 | 38.76670 | 1.30729 | 1753 ft | 243 kts | 303° |
| 2026-05-07 13:54 | 38.77838 | 1.29255 | 1502 ft | 230 kts | 327° |
| 2026-05-07 13:54 | 38.79058 | 1.28176 | 1335 ft | 194 kts | 332° |
| 2026-05-07 13:54 | 38.80249 | 1.27823 | 1271 ft | 175 kts | 8° |
| 2026-05-07 13:55 | 38.81450 | 1.27983 | 1209 ft | 171 kts | 9° |
| 2026-05-07 13:55 | 38.82611 | 1.28163 | 1217 ft | 163 kts | 16° |
| 2026-05-07 13:55 | 38.83483 | 1.28950 | 1235 ft | 150 kts | 55° |
| 2026-05-07 13:55 | 38.84118 | 1.30029 | 1231 ft | 149 kts | 53° |
| 2026-05-07 13:56 | 38.84720 | 1.31131 | 1023 ft | 153 kts | 60° |
| 2026-05-07 13:56 | 38.85223 | 1.32305 | 864 ft | 137 kts | 64° |
| 2026-05-07 13:56 | 38.85638 | 1.33336 | 601 ft | 120 kts | 64° |
| 2026-05-07 13:56 | 38.86009 | 1.34224 | 329 ft | 108 kts | 64° |
| 2026-05-07 13:57 | 38.86360 | 1.35060 | 195 ft | 108 kts | 66° |
| 2026-05-07 13:57 | 38.86704 | 1.35913 | 52 ft | 107 kts | 64° |
| 2026-05-07 13:57 | 38.87019 | 1.36668 | 4 ft | 79 kts | 64° |
| 2026-05-07 13:57 | 38.87168 | 1.37031 | 7 ft | 36 kts | 63° |
| 2026-05-07 13:58 | 38.87261 | 1.37256 | 8 ft | 20 kts | 62° |
| 2026-05-07 13:58 | 38.87332 | 1.37389 | 6 ft | 19 kts | 42° |
| 2026-05-07 13:58 | 38.87427 | 1.37479 | 6 ft | 14 kts | 33° |
| 2026-05-07 13:58 | 38.87501 | 1.37540 | 6 ft | 11 kts | 32° |
| 2026-05-07 13:59 | 38.87546 | 1.37522 | 5 ft | 10 kts | 280° |
| 2026-05-07 13:59 | 38.87512 | 1.37416 | 5 ft | 15 kts | 242° |
| 2026-05-07 13:59 | 38.87457 | 1.37283 | 5 ft | 17 kts | 243° |
| 2026-05-07 13:59 | 38.87397 | 1.37137 | 5 ft | 21 kts | 242° |
| 2026-05-07 14:00 | 38.87340 | 1.37001 | 5 ft | 15 kts | 241° |
| 2026-05-07 14:00 | 38.87297 | 1.36885 | 5 ft | 9 kts | 264° |
| 2026-05-07 14:00 | 38.87340 | 1.36838 | 5 ft | 9 kts | 336° |
| 2026-05-07 14:00 | 38.87396 | 1.36801 | 5 ft | 9 kts | 332° |
| 2026-05-07 14:01 | 38.87408 | 1.36729 | 5 ft | 10 kts | 244° |
| 2026-05-07 14:01 | 38.87409 | 1.36681 | 5 ft | 3 kts | 325° |
| 2026-05-07 14:01 | 38.87431 | 1.36670 | 5 ft | 5 kts | 338° |
| 2026-05-07 14:01 | 38.87452 | 1.36661 | 5 ft | 1 kts | 348° |
| 2026-05-07 14:02 | 38.87456 | 1.36660 | 5 ft | 0 kts | 356° |
| 2026-05-07 14:02 | 38.87459 | 1.36660 | 5 ft | 2 kts | 360° |
| 2026-05-07 14:02 | 38.87476 | 1.36667 | 5 ft | 0 kts | 16° |
| 2026-05-07 14:03 | 38.87471 | 1.36666 | 5 ft | 1 kts | 16° |
| 2026-05-07 14:03 | 38.87466 | 1.36664 | 5 ft | 0 kts | 17° |